Time;durP1;ratioP1;P1;durP2;ratioP2;P2;SDS_P1;SDS_P2;PMS_P1;PMS_P2;Temp;Humidity;BMP_temperature;BMP_pressure;BME280_temperature;BME280_humidity;BME280_pressure;Samples;Min_cycle;Max_cycle;Signal;HPM_P1;HPM_P2
2022/06/09 00:01:53;;;;;;;1.50;1.33;;;;;;;;;;4945913;29;20320;-62
2022/06/09 00:04:40;;;;;;;1.80;1.50;;;;;;;;;;4944095;28;20316;-61
2022/06/09 00:07:28;;;;;;;1.47;1.37;;;;;;;;;;4945985;28;20211;-62
2022/06/09 00:10:21;;;;;;;1.63;1.53;;;;;;;;;;4946464;28;20226;-62
2022/06/09 00:13:09;;;;;;;1.43;1.33;;;;;;;;;;4940326;29;20440;-62
2022/06/09 00:15:56;;;;;;;1.20;1.20;;;;;;;;;;4941158;29;20237;-62
2022/06/09 00:18:43;;;;;;;1.70;1.60;;;;;;;;;;4949605;28;20202;-62
2022/06/09 00:21:30;;;;;;;1.60;1.50;;;;;;;;;;4939102;28;20857;-62
2022/06/09 00:24:18;;;;;;;1.23;1.23;;;;;;;;;;4949570;28;20229;-62
2022/06/09 00:27:07;;;;;;;1.50;1.40;;;;;;;;;;4948642;28;20214;-63
2022/06/09 00:29:54;;;;;;;1.30;1.30;;;;;;;;;;4945232;29;20214;-62
2022/06/09 00:32:41;;;;;;;1.40;1.30;;;;;;;;;;4951522;28;20667;-62
2022/06/09 00:35:29;;;;;;;1.50;1.40;;;;;;;;;;4949733;28;20210;-62
2022/06/09 00:38:16;;;;;;;1.60;1.50;;;;;;;;;;4950088;29;20205;-62
2022/06/09 00:41:03;;;;;;;1.60;1.50;;;;;;;;;;4948677;28;20210;-62
2022/06/09 00:43:52;;;;;;;1.53;1.43;;;;;;;;;;4942500;29;20218;-62
2022/06/09 00:46:40;;;;;;;1.60;1.50;;;;;;;;;;4949206;28;20217;-62
2022/06/09 00:49:33;;;;;;;1.63;1.53;;;;;;;;;;4943851;29;20218;-62
2022/06/09 00:52:23;;;;;;;1.40;1.30;;;;;;;;;;4940855;28;20204;-62
2022/06/09 00:55:16;;;;;;;1.30;1.30;;;;;;;;;;4939564;29;20207;-61
2022/06/09 00:58:07;;;;;;;1.40;1.40;;;;;;;;;;4942685;28;20219;-61
2022/06/09 01:00:59;;;;;;;1.70;1.60;;;;;;;;;;4947467;29;20237;-58
2022/06/09 01:03:52;;;;;;;1.60;1.50;;;;;;;;;;4948769;28;20353;-59
2022/06/09 01:06:44;;;;;;;1.30;1.20;;;;;;;;;;4945344;28;20214;-58
2022/06/09 01:09:31;;;;;;;1.47;1.37;;;;;;;;;;4946995;28;20203;-58
2022/06/09 01:12:26;;;;;;;1.77;1.60;;;;;;;;;;4946186;28;20240;-57
2022/06/09 01:15:17;;;;;;;1.17;1.17;;;;;;;;;;4944394;28;20221;-58
2022/06/09 01:18:13;;;;;;;1.40;1.30;;;;;;;;;;4942480;29;20237;-58
2022/06/09 01:21:09;;;;;;;1.20;1.20;;;;;;;;;;4941346;29;20217;-58
2022/06/09 01:24:18;;;;;;;1.43;1.33;;;;;;;;;;4943824;29;20207;-59
2022/06/09 01:27:18;;;;;;;1.50;1.40;;;;;;;;;;4925733;28;20236;-58
2022/06/09 01:30:13;;;;;;;1.37;1.37;;;;;;;;;;4937961;29;20226;-57
2022/06/09 01:33:11;;;;;;;1.40;1.40;;;;;;;;;;4946237;28;20219;-58
2022/06/09 01:36:08;;;;;;;1.50;1.40;;;;;;;;;;4936471;29;20214;-57
2022/06/09 01:38:58;;;;;;;1.30;1.30;;;;;;;;;;4942904;29;20223;-57
2022/06/09 01:41:49;;;;;;;1.47;1.40;;;;;;;;;;4942053;28;20209;-58
2022/06/09 01:44:36;;;;;;;1.20;1.20;;;;;;;;;;4945420;28;20916;-58
2022/06/09 01:47:28;;;;;;;1.17;1.13;;;;;;;;;;4944538;28;20702;-58
2022/06/09 01:50:23;;;;;;;1.10;1.10;;;;;;;;;;4942781;28;20215;-57
2022/06/09 01:53:15;;;;;;;1.00;1.00;;;;;;;;;;4943122;29;20213;-57
2022/06/09 01:56:05;;;;;;;1.03;1.03;;;;;;;;;;4938085;29;20217;-57
2022/06/09 01:58:59;;;;;;;1.80;1.27;;;;;;;;;;4941884;29;20605;-57
2022/06/09 02:01:51;;;;;;;1.20;1.20;;;;;;;;;;4944987;29;20235;-57
2022/06/09 02:04:43;;;;;;;1.10;1.10;;;;;;;;;;4943152;28;20280;-58
2022/06/09 02:07:33;;;;;;;0.93;0.93;;;;;;;;;;4943097;28;20204;-57
2022/06/09 02:10:29;;;;;;;1.60;1.10;;;;;;;;;;4940867;28;20214;-58
2022/06/09 02:13:20;;;;;;;1.10;1.10;;;;;;;;;;4943568;29;20250;-57
2022/06/09 02:16:12;;;;;;;0.97;0.97;;;;;;;;;;4936918;29;20282;-57
2022/06/09 02:18:59;;;;;;;1.40;1.40;;;;;;;;;;4939646;28;20210;-57
2022/06/09 02:21:46;;;;;;;1.10;1.10;;;;;;;;;;4944746;29;20219;-57
2022/06/09 02:24:36;;;;;;;0.93;0.93;;;;;;;;;;4942146;28;20265;-57
2022/06/09 02:27:23;;;;;;;1.30;1.30;;;;;;;;;;4943318;29;20216;-58
2022/06/09 02:30:11;;;;;;;1.10;1.10;;;;;;;;;;4942680;28;20220;-57
2022/06/09 02:32:58;;;;;;;1.00;1.00;;;;;;;;;;4942393;28;20217;-57
2022/06/09 02:35:45;;;;;;;0.93;0.93;;;;;;;;;;4937250;28;20207;-57
2022/06/09 02:38:33;;;;;;;0.90;0.90;;;;;;;;;;4937835;29;20204;-57
2022/06/09 02:41:21;;;;;;;0.90;0.90;;;;;;;;;;4940202;29;20208;-57
2022/06/09 02:44:08;;;;;;;1.03;1.03;;;;;;;;;;4940256;29;20215;-57
2022/06/09 02:46:56;;;;;;;1.00;1.00;;;;;;;;;;4941639;28;20245;-58
2022/06/09 02:49:44;;;;;;;1.10;1.10;;;;;;;;;;4941344;28;20211;-57
2022/06/09 02:52:31;;;;;;;0.97;0.97;;;;;;;;;;4941496;29;20838;-58
2022/06/09 02:55:19;;;;;;;0.90;0.90;;;;;;;;;;4946139;28;20593;-58
2022/06/09 02:58:08;;;;;;;1.00;1.00;;;;;;;;;;4942706;29;20214;-58
2022/06/09 03:00:55;;;;;;;0.90;0.90;;;;;;;;;;4935642;28;20697;-57
2022/06/09 03:03:43;;;;;;;0.77;0.77;;;;;;;;;;4943487;28;20211;-57
2022/06/09 03:06:30;;;;;;;1.00;1.00;;;;;;;;;;4946752;28;20943;-58
2022/06/09 03:09:17;;;;;;;0.77;0.77;;;;;;;;;;4939222;28;20204;-57
2022/06/09 03:12:05;;;;;;;1.00;0.90;;;;;;;;;;4941733;29;20207;-57
2022/06/09 03:14:53;;;;;;;1.10;1.07;;;;;;;;;;4942780;28;20200;-57
2022/06/09 03:17:40;;;;;;;0.90;0.90;;;;;;;;;;4941420;29;20252;-57
2022/06/09 03:20:31;;;;;;;2.50;1.00;;;;;;;;;;4940618;28;20591;-57
2022/06/09 03:23:18;;;;;;;0.83;0.83;;;;;;;;;;4944487;29;20699;-58
2022/06/09 03:26:05;;;;;;;0.93;0.93;;;;;;;;;;4943849;29;20228;-57
2022/06/09 03:28:52;;;;;;;0.90;0.90;;;;;;;;;;4943212;28;20221;-59
2022/06/09 03:31:41;;;;;;;1.10;1.10;;;;;;;;;;4941781;29;20208;-57
2022/06/09 03:34:28;;;;;;;1.23;1.17;;;;;;;;;;4947566;28;20208;-58
2022/06/09 03:37:15;;;;;;;1.00;1.00;;;;;;;;;;4939737;28;20672;-57
2022/06/09 03:40:04;;;;;;;0.90;0.90;;;;;;;;;;4939395;29;20208;-58
2022/06/09 03:42:51;;;;;;;1.10;1.10;;;;;;;;;;4943923;28;20207;-58
2022/06/09 03:45:39;;;;;;;0.83;0.80;;;;;;;;;;4941923;28;20238;-57
2022/06/09 03:48:28;;;;;;;0.80;0.80;;;;;;;;;;4951478;28;20222;-57
2022/06/09 03:51:15;;;;;;;0.90;0.90;;;;;;;;;;4944235;28;20203;-58
2022/06/09 03:54:02;;;;;;;0.80;0.80;;;;;;;;;;4946841;29;20207;-57
2022/06/09 03:56:51;;;;;;;1.07;1.07;;;;;;;;;;4947425;28;20219;-57
2022/06/09 03:59:38;;;;;;;0.73;0.73;;;;;;;;;;4941172;28;20238;-57
2022/06/09 04:02:25;;;;;;;0.80;0.80;;;;;;;;;;4947249;28;20240;-57
2022/06/09 04:05:14;;;;;;;0.97;0.97;;;;;;;;;;4948845;28;20235;-57
2022/06/09 04:08:02;;;;;;;1.23;1.03;;;;;;;;;;4947874;28;20220;-57
2022/06/09 04:10:49;;;;;;;1.10;1.10;;;;;;;;;;4945276;28;20216;-57
2022/06/09 04:13:37;;;;;;;0.83;0.83;;;;;;;;;;4947080;28;20247;-58
2022/06/09 04:16:27;;;;;;;1.00;1.00;;;;;;;;;;4942783;28;20212;-58
2022/06/09 04:19:17;;;;;;;1.40;1.13;;;;;;;;;;4946368;28;20826;-57
2022/06/09 04:22:07;;;;;;;0.90;0.90;;;;;;;;;;4944017;29;20216;-58
2022/06/09 04:24:55;;;;;;;1.10;1.10;;;;;;;;;;4945120;29;20212;-57
2022/06/09 04:27:42;;;;;;;0.97;0.97;;;;;;;;;;4942773;28;20683;-57
2022/06/09 04:30:30;;;;;;;0.90;0.90;;;;;;;;;;4944643;29;20232;-58
2022/06/09 04:33:17;;;;;;;0.93;0.93;;;;;;;;;;4943974;28;20677;-57
2022/06/09 04:36:05;;;;;;;0.90;0.90;;;;;;;;;;4947332;28;20201;-57
2022/06/09 04:38:54;;;;;;;1.30;1.27;;;;;;;;;;4943709;29;20217;-57
2022/06/09 04:41:41;;;;;;;1.00;1.00;;;;;;;;;;4946725;28;20206;-57
2022/06/09 04:44:28;;;;;;;1.00;1.00;;;;;;;;;;4948640;28;20677;-57
2022/06/09 04:47:15;;;;;;;1.20;1.10;;;;;;;;;;4945523;29;20238;-57
2022/06/09 04:50:03;;;;;;;1.00;1.00;;;;;;;;;;4941667;28;20210;-57
2022/06/09 04:52:50;;;;;;;0.80;0.80;;;;;;;;;;4937457;29;20205;-58
2022/06/09 04:55:40;;;;;;;1.07;1.00;;;;;;;;;;4941816;28;20655;-58
2022/06/09 04:58:27;;;;;;;0.93;0.93;;;;;;;;;;4938389;29;20217;-59
2022/06/09 05:01:17;;;;;;;1.10;1.10;;;;;;;;;;4938999;28;20848;-58
2022/06/09 05:04:04;;;;;;;0.90;0.90;;;;;;;;;;4940051;28;20259;-57
2022/06/09 05:06:52;;;;;;;1.10;1.10;;;;;;;;;;4942449;28;20231;-58
2022/06/09 05:09:39;;;;;;;0.97;0.97;;;;;;;;;;4947959;28;20564;-57
2022/06/09 05:12:27;;;;;;;0.93;0.93;;;;;;;;;;4943411;28;20242;-57
2022/06/09 05:15:16;;;;;;;1.00;1.00;;;;;;;;;;4941325;28;20212;-57
2022/06/09 05:18:04;;;;;;;0.67;0.67;;;;;;;;;;4946167;29;20223;-58
2022/06/09 05:20:53;;;;;;;0.90;0.90;;;;;;;;;;4940314;28;20217;-58
2022/06/09 05:23:41;;;;;;;1.00;0.90;;;;;;;;;;4938100;28;20208;-57
2022/06/09 05:26:28;;;;;;;1.10;1.10;;;;;;;;;;4940663;29;20256;-58
2022/06/09 05:29:16;;;;;;;1.00;1.00;;;;;;;;;;4945812;28;20209;-58
2022/06/09 05:32:04;;;;;;;1.00;1.00;;;;;;;;;;4939668;29;20213;-57
2022/06/09 05:34:51;;;;;;;1.00;1.00;;;;;;;;;;4944540;28;20221;-58
2022/06/09 05:47:07;;;;;;;1.00;1.00;;;;;;;;;;4941577;28;20231;-57
2022/06/09 05:49:55;;;;;;;0.90;0.90;;;;;;;;;;4938054;28;20220;-57
2022/06/09 05:52:42;;;;;;;1.50;1.00;;;;;;;;;;4941300;29;20589;-57
2022/06/09 05:55:29;;;;;;;1.00;1.00;;;;;;;;;;4945212;29;20209;-57
2022/06/09 05:58:16;;;;;;;1.10;1.10;;;;;;;;;;4946539;29;20216;-57
2022/06/09 06:01:09;;;;;;;0.90;0.90;;;;;;;;;;4943546;28;20262;-58
2022/06/09 06:03:58;;;;;;;0.90;0.90;;;;;;;;;;4938301;28;20678;-57
2022/06/09 06:06:46;;;;;;;1.07;1.07;;;;;;;;;;4940674;28;20247;-58
2022/06/09 06:09:33;;;;;;;0.90;0.90;;;;;;;;;;4947482;28;20205;-58
2022/06/09 06:12:20;;;;;;;0.90;0.90;;;;;;;;;;4940797;28;20225;-57
2022/06/09 06:15:09;;;;;;;1.00;1.00;;;;;;;;;;4938537;29;20221;-57
2022/06/09 06:17:56;;;;;;;1.00;1.00;;;;;;;;;;4937929;29;20209;-58
2022/06/09 06:20:45;;;;;;;1.50;0.90;;;;;;;;;;4940021;29;20208;-58
2022/06/09 06:23:32;;;;;;;0.90;0.90;;;;;;;;;;4948764;28;20216;-58
2022/06/09 06:26:20;;;;;;;0.93;0.93;;;;;;;;;;4941617;28;20239;-58
2022/06/09 06:29:12;;;;;;;1.20;1.10;;;;;;;;;;4941627;28;20212;-57
2022/06/09 06:31:59;;;;;;;1.00;1.00;;;;;;;;;;4943084;29;20217;-57
2022/06/09 06:34:46;;;;;;;1.00;1.00;;;;;;;;;;4939357;28;20215;-57
2022/06/09 06:37:34;;;;;;;1.20;1.20;;;;;;;;;;4942858;28;20266;-57
2022/06/09 06:40:22;;;;;;;1.20;1.20;;;;;;;;;;4942225;28;20223;-58
2022/06/09 06:43:10;;;;;;;1.00;1.00;;;;;;;;;;4936543;28;20238;-58
2022/06/09 06:45:57;;;;;;;1.00;1.00;;;;;;;;;;4942739;28;20230;-57
2022/06/09 06:48:46;;;;;;;1.00;1.00;;;;;;;;;;4947178;29;20211;-58
2022/06/09 06:51:33;;;;;;;1.00;1.00;;;;;;;;;;4943216;28;20209;-57
2022/06/09 06:54:22;;;;;;;1.23;1.23;;;;;;;;;;4949900;28;20209;-57
2022/06/09 06:57:09;;;;;;;0.90;0.90;;;;;;;;;;4943453;29;20210;-57
2022/06/09 06:59:58;;;;;;;1.00;1.00;;;;;;;;;;4952116;28;20212;-57
2022/06/09 07:02:45;;;;;;;1.10;1.10;;;;;;;;;;4951719;28;20225;-58
2022/06/09 07:05:32;;;;;;;0.98;0.98;;;;;;;;;;4948316;28;20203;-58
2022/06/09 07:08:20;;;;;;;1.05;1.05;;;;;;;;;;4943293;29;20663;-58
2022/06/09 07:11:09;;;;;;;0.95;0.95;;;;;;;;;;4943613;28;20211;-58
2022/06/09 07:13:56;;;;;;;0.88;0.88;;;;;;;;;;4947395;29;20715;-58
2022/06/09 07:16:43;;;;;;;1.02;1.02;;;;;;;;;;4942505;28;20869;-57
2022/06/09 07:19:31;;;;;;;0.90;0.90;;;;;;;;;;4942993;29;20200;-58
2022/06/09 07:22:19;;;;;;;1.10;1.10;;;;;;;;;;4945683;29;20582;-57
2022/06/09 07:25:07;;;;;;;1.15;1.15;;;;;;;;;;4946901;28;20700;-58
2022/06/09 07:27:56;;;;;;;1.10;1.10;;;;;;;;;;4945917;29;20236;-59
2022/06/09 07:30:44;;;;;;;1.10;1.10;;;;;;;;;;4943180;28;20618;-58
2022/06/09 07:33:34;;;;;;;1.17;1.17;;;;;;;;;;4948147;28;20215;-58
2022/06/09 07:36:23;;;;;;;1.20;1.10;;;;;;;;;;4944971;28;20204;-58
2022/06/09 07:39:10;;;;;;;0.93;0.93;;;;;;;;;;4944425;29;20229;-58
2022/06/09 07:41:58;;;;;;;1.00;1.00;;;;;;;;;;4949478;29;20223;-58
2022/06/09 07:44:46;;;;;;;1.10;1.08;;;;;;;;;;4943105;28;20228;-58
2022/06/09 07:47:33;;;;;;;2.08;1.30;;;;;;;;;;4949768;28;20235;-58
2022/06/09 07:50:21;;;;;;;2.50;1.30;;;;;;;;;;4940352;28;20218;-58
2022/06/09 07:53:08;;;;;;;0.95;0.95;;;;;;;;;;4943113;29;20214;-58
2022/06/09 07:55:55;;;;;;;0.90;0.90;;;;;;;;;;4940945;29;20222;-58
2022/06/09 07:58:43;;;;;;;1.05;1.05;;;;;;;;;;4943023;29;20204;-58
2022/06/09 08:01:32;;;;;;;1.13;1.13;;;;;;;;;;4945391;28;20726;-58
2022/06/09 08:04:19;;;;;;;1.05;1.02;;;;;;;;;;4944669;28;20214;-58
2022/06/09 08:07:07;;;;;;;1.65;1.55;;;;;;;;;;4947556;28;20238;-58
2022/06/09 08:09:54;;;;;;;1.08;1.08;;;;;;;;;;4941089;28;20246;-59
2022/06/09 08:12:42;;;;;;;0.90;0.90;;;;;;;;;;4942562;29;20360;-58
2022/06/09 08:15:30;;;;;;;1.00;1.00;;;;;;;;;;4942347;29;20239;-57
2022/06/09 08:18:18;;;;;;;1.15;1.15;;;;;;;;;;4947176;29;20226;-58
2022/06/09 08:21:05;;;;;;;1.00;1.00;;;;;;;;;;4937928;29;20208;-58
2022/06/09 08:23:53;;;;;;;0.95;0.95;;;;;;;;;;4939889;28;20222;-58
2022/06/09 08:26:40;;;;;;;1.00;1.00;;;;;;;;;;4942601;29;20238;-57
2022/06/09 08:29:29;;;;;;;1.08;1.05;;;;;;;;;;4942906;29;20223;-57
2022/06/09 08:32:16;;;;;;;1.10;1.10;;;;;;;;;;4946643;28;20230;-56
2022/06/09 08:35:09;;;;;;;1.50;1.50;;;;;;;;;;4947045;28;20227;-58
2022/06/09 08:37:56;;;;;;;1.08;1.08;;;;;;;;;;4942906;28;20662;-58
2022/06/09 08:40:51;;;;;;;1.75;1.20;;;;;;;;;;4948437;28;20222;-56
2022/06/09 08:43:45;;;;;;;1.30;1.30;;;;;;;;;;4944986;28;20218;-56
2022/06/09 08:46:43;;;;;;;1.00;1.00;;;;;;;;;;4944791;28;20227;-57
2022/06/09 08:49:55;;;;;;;0.93;0.93;;;;;;;;;;4947298;28;20211;-57
2022/06/09 08:52:49;;;;;;;1.30;1.30;;;;;;;;;;4945054;28;20204;-57
2022/06/09 08:55:39;;;;;;;1.02;1.02;;;;;;;;;;4946731;28;20215;-57
2022/06/09 08:58:30;;;;;;;1.10;1.10;;;;;;;;;;4948489;29;20207;-57
2022/06/09 09:01:24;;;;;;;1.10;1.10;;;;;;;;;;4943941;28;20231;-57
2022/06/09 09:04:20;;;;;;;1.05;1.05;;;;;;;;;;4943490;28;20898;-57
2022/06/09 09:07:15;;;;;;;1.50;1.40;;;;;;;;;;4939949;29;20338;-58
2022/06/09 09:10:16;;;;;;;1.00;1.00;;;;;;;;;;4943008;29;20218;-58
2022/06/09 09:13:19;;;;;;;1.50;1.10;;;;;;;;;;4943374;28;20929;-58
2022/06/09 09:16:16;;;;;;;1.00;1.00;;;;;;;;;;4940608;29;20214;-58
2022/06/09 09:19:14;;;;;;;1.23;1.10;;;;;;;;;;4943588;29;20211;-57
2022/06/09 09:22:09;;;;;;;0.85;0.85;;;;;;;;;;4945501;28;20213;-57
2022/06/09 09:25:09;;;;;;;1.30;1.30;;;;;;;;;;4944503;28;20222;-57
2022/06/09 09:28:05;;;;;;;1.20;1.20;;;;;;;;;;4938051;28;20606;-58
2022/06/09 09:31:01;;;;;;;1.27;1.27;;;;;;;;;;4937774;29;20243;-58
2022/06/09 09:33:49;;;;;;;1.00;1.00;;;;;;;;;;4947178;28;20227;-57
2022/06/09 09:36:36;;;;;;;1.40;1.40;;;;;;;;;;4945619;29;20203;-58
2022/06/09 09:39:30;;;;;;;0.95;0.95;;;;;;;;;;4948299;28;20211;-57
2022/06/09 09:42:21;;;;;;;1.08;1.08;;;;;;;;;;4944989;28;20724;-57
2022/06/09 09:45:17;;;;;;;1.05;1.05;;;;;;;;;;4940415;28;20706;-57
2022/06/09 09:48:07;;;;;;;1.10;1.10;;;;;;;;;;4939464;29;20228;-57
2022/06/09 09:50:57;;;;;;;0.98;0.98;;;;;;;;;;4940447;28;20216;-57
2022/06/09 09:53:54;;;;;;;1.27;1.27;;;;;;;;;;4943207;29;20214;-57
2022/06/09 09:56:41;;;;;;;1.30;1.30;;;;;;;;;;4942562;29;20208;-57
2022/06/09 09:59:31;;;;;;;1.30;1.30;;;;;;;;;;4936266;29;20219;-57
2022/06/09 10:09:05;;;;;;;1.10;1.10;;;;;;;;;;4940530;29;20203;-57
2022/06/09 10:11:59;;;;;;;1.08;1.08;;;;;;;;;;4943015;28;20212;-57
2022/06/09 10:14:52;;;;;;;1.30;1.30;;;;;;;;;;4938568;28;20216;-59
2022/06/09 10:17:44;;;;;;;1.58;1.48;;;;;;;;;;4940546;29;20227;-57
2022/06/09 10:20:35;;;;;;;1.10;1.10;;;;;;;;;;4938308;29;20292;-57
2022/06/09 10:23:41;;;;;;;1.02;1.02;;;;;;;;;;4946164;29;20485;-57
2022/06/09 10:26:33;;;;;;;1.02;1.02;;;;;;;;;;4946411;28;20208;-57
2022/06/09 10:29:25;;;;;;;1.25;1.10;;;;;;;;;;4945422;29;20214;-57
2022/06/09 10:32:19;;;;;;;1.10;1.10;;;;;;;;;;4939798;28;20337;-57
2022/06/09 10:35:14;;;;;;;1.10;1.10;;;;;;;;;;4940088;28;20216;-57
2022/06/09 10:38:11;;;;;;;0.85;0.85;;;;;;;;;;4944589;28;20298;-59
2022/06/09 10:41:00;;;;;;;0.90;0.90;;;;;;;;;;4940945;29;20219;-57
2022/06/09 10:43:51;;;;;;;1.25;1.15;;;;;;;;;;4944263;28;20211;-57
2022/06/09 10:46:42;;;;;;;1.10;1.10;;;;;;;;;;4941941;28;20210;-57
2022/06/09 10:55:53;;;;;;;1.08;1.08;;;;;;;;;;4943127;28;20563;-58
2022/06/09 10:58:45;;;;;;;0.98;0.98;;;;;;;;;;4945332;29;20297;-57
2022/06/09 11:01:34;;;;;;;0.95;0.95;;;;;;;;;;4939352;28;20832;-58
2022/06/09 11:04:22;;;;;;;0.75;0.75;;;;;;;;;;4943337;28;20252;-57
2022/06/09 11:07:35;;;;;;;1.30;1.30;;;;;;;;;;4941906;28;20360;-58
2022/06/09 11:10:29;;;;;;;1.10;1.10;;;;;;;;;;4938557;29;20676;-57
2022/06/09 11:13:40;;;;;;;1.10;1.10;;;;;;;;;;4939057;29;20374;-61
2022/06/09 11:16:36;;;;;;;1.08;1.08;;;;;;;;;;4938499;28;20207;-57
2022/06/09 11:19:40;;;;;;;0.98;0.98;;;;;;;;;;4944201;28;20215;-57
2022/06/09 11:22:39;;;;;;;0.93;0.93;;;;;;;;;;4937510;29;20287;-58
2022/06/09 11:25:39;;;;;;;1.13;1.13;;;;;;;;;;4941238;28;20215;-58
2022/06/09 11:28:35;;;;;;;1.10;1.10;;;;;;;;;;4941342;28;20719;-58
2022/06/09 11:31:47;;;;;;;1.10;1.10;;;;;;;;;;4937671;29;20683;-57
2022/06/09 11:34:52;;;;;;;1.00;1.00;;;;;;;;;;4940071;28;20235;-58
2022/06/09 11:37:59;;;;;;;0.90;0.90;;;;;;;;;;4947992;29;20216;-58
2022/06/09 11:40:52;;;;;;;0.95;0.95;;;;;;;;;;4941395;28;20215;-57
2022/06/09 11:43:48;;;;;;;0.90;0.90;;;;;;;;;;4946145;29;20239;-57
2022/06/09 11:46:39;;;;;;;1.00;1.00;;;;;;;;;;4941540;29;20208;-58
2022/06/09 11:49:33;;;;;;;1.05;1.05;;;;;;;;;;4942549;29;20278;-58
2022/06/09 11:52:23;;;;;;;1.05;1.05;;;;;;;;;;4941596;28;20660;-57
2022/06/09 11:55:57;;;;;;;0.95;0.95;;;;;;;;;;4944526;28;20231;-58
2022/06/09 11:58:49;;;;;;;0.90;0.90;;;;;;;;;;4942606;29;20234;-58
2022/06/09 12:01:55;;;;;;;1.00;1.00;;;;;;;;;;4941020;29;20314;-57
2022/06/09 12:05:08;;;;;;;0.95;0.95;;;;;;;;;;4947065;28;20286;-57
2022/06/09 12:08:13;;;;;;;1.13;1.13;;;;;;;;;;4944542;28;20225;-57
2022/06/09 12:11:08;;;;;;;1.00;1.00;;;;;;;;;;4946586;29;20215;-57
2022/06/09 12:14:00;;;;;;;0.90;0.90;;;;;;;;;;4945087;28;20297;-57
2022/06/09 12:17:08;;;;;;;1.27;1.27;;;;;;;;;;4947519;28;20211;-57
2022/06/09 12:19:59;;;;;;;1.02;1.02;;;;;;;;;;4944166;29;20286;-57
2022/06/09 12:23:01;;;;;;;1.00;1.00;;;;;;;;;;4939336;29;20735;-57
2022/06/09 12:29:02;;;;;;;1.10;1.10;;;;;;;;;;5063581;27;20557;-57
2022/06/09 12:32:32;;;;;;;0.93;0.93;;;;;;;;;;5044886;28;20696;-56
2022/06/09 12:35:26;;;;;;;1.10;1.10;;;;;;;;;;5038748;28;20266;-57
2022/06/09 12:38:24;;;;;;;1.00;1.00;;;;;;;;;;5034168;28;20270;-57
2022/06/09 12:41:22;;;;;;;1.02;1.02;;;;;;;;;;5036899;28;20219;-57
2022/06/09 12:44:26;;;;;;;1.10;1.10;;;;;;;;;;5037755;28;20236;-57
2022/06/09 12:47:16;;;;;;;1.20;1.20;;;;;;;;;;5036777;28;20570;-57
2022/06/09 12:50:22;;;;;;;1.00;1.00;;;;;;;;;;5032565;28;20610;-57
2022/06/09 12:53:18;;;;;;;1.20;1.20;;;;;;;;;;5036773;28;20285;-58
2022/06/09 12:56:07;;;;;;;0.77;0.77;;;;;;;;;;5038278;28;20664;-57
2022/06/09 12:58:56;;;;;;;0.98;0.98;;;;;;;;;;5038203;28;20575;-57
2022/06/09 13:01:53;;;;;;;1.20;1.20;;;;;;;;;;5046957;28;20226;-57
2022/06/09 13:04:50;;;;;;;1.05;1.05;;;;;;;;;;5054046;28;20265;-57
2022/06/09 13:07:40;;;;;;;1.10;1.10;;;;;;;;;;5052927;28;20223;-57
2022/06/09 13:10:30;;;;;;;0.77;0.77;;;;;;;;;;5056326;28;20741;-57
2022/06/09 13:13:20;;;;;;;1.00;1.00;;;;;;;;;;5055521;28;20211;-58
2022/06/09 13:16:13;;;;;;;0.90;0.90;;;;;;;;;;5048643;28;20664;-58
2022/06/09 13:19:05;;;;;;;1.10;1.10;;;;;;;;;;5056573;28;20290;-58
2022/06/09 13:21:53;;;;;;;1.23;1.23;;;;;;;;;;5067477;28;20218;-58
2022/06/09 13:24:43;;;;;;;0.90;0.90;;;;;;;;;;5055344;28;20212;-58
2022/06/09 13:27:33;;;;;;;0.80;0.80;;;;;;;;;;5056883;28;20321;-57
2022/06/09 13:30:40;;;;;;;0.98;0.98;;;;;;;;;;5060934;28;20658;-57
2022/06/09 13:33:32;;;;;;;0.93;0.93;;;;;;;;;;5059642;28;20266;-57
2022/06/09 13:36:28;;;;;;;0.93;0.93;;;;;;;;;;5052409;28;20614;-57
2022/06/09 13:39:34;;;;;;;0.63;0.63;;;;;;;;;;5049571;28;20211;-57
2022/06/09 13:42:25;;;;;;;1.02;1.02;;;;;;;;;;5042225;28;20702;-57
2022/06/09 13:45:20;;;;;;;0.90;0.90;;;;;;;;;;5043170;28;20222;-57
2022/06/09 13:48:17;;;;;;;1.10;1.10;;;;;;;;;;5039366;28;20317;-57
2022/06/09 13:51:11;;;;;;;1.00;1.00;;;;;;;;;;5042553;28;20685;-58
2022/06/09 13:54:22;;;;;;;0.70;0.70;;;;;;;;;;5043209;28;20268;-57
2022/06/09 13:57:23;;;;;;;0.80;0.80;;;;;;;;;;5046824;28;20207;-58
2022/06/09 14:00:18;;;;;;;0.90;0.90;;;;;;;;;;5048024;28;20296;-57
2022/06/09 14:03:07;;;;;;;0.80;0.80;;;;;;;;;;5055586;28;20680;-57
2022/06/09 14:05:57;;;;;;;0.90;0.90;;;;;;;;;;5054019;28;20291;-57
2022/06/09 14:08:46;;;;;;;1.10;1.10;;;;;;;;;;5044136;28;20259;-57
2022/06/09 14:11:35;;;;;;;0.90;0.90;;;;;;;;;;5053722;28;20215;-57
2022/06/09 14:14:22;;;;;;;0.90;0.90;;;;;;;;;;5043707;28;20336;-57
2022/06/09 14:17:18;;;;;;;0.93;0.93;;;;;;;;;;5055728;28;20719;-57
2022/06/09 14:20:06;;;;;;;0.80;0.80;;;;;;;;;;5045287;28;20608;-57
2022/06/09 14:22:54;;;;;;;0.90;0.90;;;;;;;;;;5043636;28;20786;-57
2022/06/09 14:25:41;;;;;;;0.90;0.90;;;;;;;;;;5040200;28;20215;-58
2022/06/09 14:28:31;;;;;;;0.70;0.70;;;;;;;;;;5042625;28;20321;-58
2022/06/09 14:31:22;;;;;;;1.20;1.20;;;;;;;;;;5039781;28;20201;-57
2022/06/09 14:34:09;;;;;;;1.10;1.10;;;;;;;;;;5035804;28;20210;-57
2022/06/09 14:36:57;;;;;;;1.07;1.00;;;;;;;;;;5035467;28;20212;-57
2022/06/09 14:39:44;;;;;;;1.10;1.10;;;;;;;;;;5044545;28;20218;-57
2022/06/09 14:42:31;;;;;;;1.10;1.10;;;;;;;;;;5046464;28;20214;-57
2022/06/09 14:45:20;;;;;;;1.10;1.10;;;;;;;;;;5041346;28;20207;-57
2022/06/09 14:48:12;;;;;;;1.00;1.00;;;;;;;;;;5040545;28;20250;-57
2022/06/09 14:51:00;;;;;;;1.00;1.00;;;;;;;;;;5039221;28;20259;-57
2022/06/09 14:53:47;;;;;;;1.00;1.00;;;;;;;;;;5042068;28;20235;-57
2022/06/09 14:56:38;;;;;;;1.03;1.03;;;;;;;;;;5046751;28;20293;-57
2022/06/09 14:59:25;;;;;;;1.00;1.00;;;;;;;;;;5036763;28;20199;-57
2022/06/09 15:02:17;;;;;;;1.10;1.10;;;;;;;;;;5041118;28;20227;-57
2022/06/09 15:05:06;;;;;;;1.17;1.17;;;;;;;;;;5048733;28;20206;-59
2022/06/09 15:07:54;;;;;;;1.10;1.10;;;;;;;;;;5035913;28;20233;-56
2022/06/09 15:10:44;;;;;;;1.10;1.10;;;;;;;;;;5038982;28;20213;-58
2022/06/09 15:13:31;;;;;;;1.37;1.33;;;;;;;;;;5037502;28;20571;-58
2022/06/09 15:16:19;;;;;;;1.10;1.10;;;;;;;;;;5038873;28;20273;-57
2022/06/09 15:19:07;;;;;;;1.10;1.10;;;;;;;;;;5044999;28;20199;-56
2022/06/09 15:21:54;;;;;;;1.27;1.23;;;;;;;;;;5045551;28;20606;-57
2022/06/09 15:24:42;;;;;;;1.10;1.00;;;;;;;;;;5039361;28;20206;-57
2022/06/09 15:27:29;;;;;;;1.20;1.20;;;;;;;;;;5041267;28;20244;-57
2022/06/09 15:30:18;;;;;;;0.87;0.87;;;;;;;;;;5043083;28;20212;-57
2022/06/09 15:33:06;;;;;;;1.10;1.10;;;;;;;;;;5041791;28;20197;-57
2022/06/09 15:35:55;;;;;;;1.30;1.30;;;;;;;;;;5041173;28;20201;-58
2022/06/09 15:38:42;;;;;;;1.30;1.20;;;;;;;;;;5043583;28;20213;-57
2022/06/09 15:41:29;;;;;;;1.10;1.10;;;;;;;;;;5039779;28;20340;-58
2022/06/09 15:44:16;;;;;;;1.20;1.10;;;;;;;;;;5040404;28;20210;-58
2022/06/09 15:47:04;;;;;;;0.93;0.93;;;;;;;;;;5048662;28;20213;-58
2022/06/09 15:49:51;;;;;;;1.10;1.10;;;;;;;;;;5046527;28;20205;-58
2022/06/09 15:52:40;;;;;;;1.17;1.07;;;;;;;;;;5040348;28;20718;-58
2022/06/09 15:55:27;;;;;;;1.20;1.20;;;;;;;;;;5039295;28;20433;-57
2022/06/09 15:58:14;;;;;;;1.13;1.13;;;;;;;;;;5039196;28;20202;-57
2022/06/09 16:01:02;;;;;;;1.03;1.03;;;;;;;;;;5039581;28;20225;-57
2022/06/09 16:03:48;;;;;;;0.87;0.87;;;;;;;;;;5037761;28;20212;-57
2022/06/09 16:06:35;;;;;;;1.30;1.30;;;;;;;;;;5034462;28;20213;-57
2022/06/09 16:09:24;;;;;;;1.20;1.20;;;;;;;;;;5036867;28;20270;-57
2022/06/09 16:12:11;;;;;;;1.10;1.10;;;;;;;;;;5044146;28;20660;-57
2022/06/09 16:14:58;;;;;;;1.00;1.00;;;;;;;;;;5037405;28;20219;-58
2022/06/09 16:17:46;;;;;;;1.23;1.23;;;;;;;;;;5036169;28;20325;-57
2022/06/09 16:20:38;;;;;;;1.07;1.07;;;;;;;;;;5035737;28;20207;-58
2022/06/09 16:23:26;;;;;;;1.23;1.23;;;;;;;;;;5040100;28;20213;-58
2022/06/09 16:26:15;;;;;;;1.27;1.27;;;;;;;;;;5041974;28;20199;-57
2022/06/09 16:29:02;;;;;;;2.10;1.60;;;;;;;;;;5042001;28;20354;-57
2022/06/09 16:31:49;;;;;;;1.20;1.20;;;;;;;;;;5034599;28;20211;-57
2022/06/09 16:34:36;;;;;;;1.20;1.20;;;;;;;;;;5033659;28;20286;-57
2022/06/09 16:37:23;;;;;;;1.60;1.50;;;;;;;;;;5038136;28;20231;-57
2022/06/09 16:40:13;;;;;;;1.73;1.60;;;;;;;;;;5039453;28;20242;-57
2022/06/09 16:43:02;;;;;;;1.40;1.40;;;;;;;;;;5041004;28;20201;-58
2022/06/09 16:45:50;;;;;;;1.40;1.40;;;;;;;;;;5043161;28;20215;-57
2022/06/09 16:48:37;;;;;;;1.13;1.13;;;;;;;;;;5035233;28;20224;-57
2022/06/09 16:51:24;;;;;;;1.53;1.53;;;;;;;;;;5035730;28;20720;-56
2022/06/09 16:54:11;;;;;;;1.17;1.17;;;;;;;;;;5037271;28;20211;-57
2022/06/09 16:57:00;;;;;;;1.13;1.13;;;;;;;;;;5041485;28;20268;-57
2022/06/09 16:59:48;;;;;;;1.60;1.50;;;;;;;;;;5042225;28;20203;-57
2022/06/09 17:02:35;;;;;;;1.50;1.50;;;;;;;;;;5036737;28;20226;-57
2022/06/09 17:05:25;;;;;;;1.40;1.40;;;;;;;;;;5034345;28;20208;-57
2022/06/09 17:08:13;;;;;;;1.17;1.17;;;;;;;;;;5035240;28;20289;-57
2022/06/09 17:11:01;;;;;;;1.33;1.30;;;;;;;;;;5047319;28;20207;-58
2022/06/09 17:13:49;;;;;;;1.60;1.30;;;;;;;;;;5040308;28;20203;-57
2022/06/09 17:16:37;;;;;;;1.47;1.43;;;;;;;;;;5038758;28;20312;-58
2022/06/09 17:19:27;;;;;;;2.00;1.53;;;;;;;;;;5038788;28;20600;-57
2022/06/09 17:22:14;;;;;;;1.60;1.50;;;;;;;;;;5043392;28;20206;-61
2022/06/09 17:25:01;;;;;;;1.40;1.40;;;;;;;;;;5049620;28;20203;-57
2022/06/09 17:27:48;;;;;;;1.37;1.37;;;;;;;;;;5041323;28;20234;-57
2022/06/09 17:30:35;;;;;;;1.20;1.20;;;;;;;;;;5041832;28;20244;-59